Terminal Aerodrome Forecast
Issued by NWS

Home | Current Version | Previous Version | Text Only | Print | Product List | Glossary Off
Versions: 1 2 3 4 5 6 7 8 9 10 11 12 13 14 15

000
FTUS43 KICT 261140
TAFRSL
TAF
KRSL 261140Z 2612/2712 31009KT P6SM SKC
     FM261700 22011KT P6SM SCT100
     FM261900 24016G23KT P6SM SCT100
     FM270000 34017G25KT P6SM BKN070
     FM270400 02017G25KT P6SM SCT025 BKN070=

USA.gov is the U.S. government's official web portal to all federal, state and local government web resources and services.